createdAt,value
2019-02-23T00:00:57.813Z,9.97
2019-02-23T00:03:25.879Z,10.13
2019-02-23T00:05:53.864Z,8.80
2019-02-23T00:08:21.915Z,9.17
2019-02-23T00:10:49.913Z,8.60
2019-02-23T00:13:19.661Z,8.53
2019-02-23T00:15:49.128Z,9.77
2019-02-23T00:18:17.815Z,9.50
2019-02-23T00:20:45.876Z,10.63
2019-02-23T00:23:13.941Z,8.60
2019-02-23T00:25:42.049Z,10.33
2019-02-23T00:28:10.089Z,9.53
2019-02-23T00:30:38.150Z,10.83
2019-02-23T00:33:06.115Z,9.83
2019-02-23T00:35:34.102Z,8.83
2019-02-23T00:38:02.118Z,11.77
2019-02-23T00:40:31.484Z,11.50
2019-02-23T00:42:59.521Z,10.27
2019-02-23T00:45:27.518Z,10.50
2019-02-23T00:47:55.522Z,11.03
2019-02-23T00:50:23.685Z,10.77
2019-02-23T00:52:53.519Z,10.50
2019-02-23T00:55:21.471Z,9.80
2019-02-23T00:57:49.582Z,11.57
2019-02-23T01:00:17.593Z,9.17
2019-02-23T01:02:45.685Z,11.27
2019-02-23T01:05:13.651Z,9.70
2019-02-23T01:07:41.682Z,11.70
2019-02-23T01:10:10.030Z,9.93
2019-02-23T01:12:38.167Z,9.87
2019-02-23T01:15:06.863Z,13.13
2019-02-23T01:17:34.841Z,11.73
2019-02-23T01:20:03.826Z,9.80
2019-02-23T01:22:31.851Z,11.87
2019-02-23T01:25:03.576Z,9.50
2019-02-23T01:27:31.682Z,8.77
2019-02-23T01:29:59.710Z,12.70
2019-02-23T01:32:28.276Z,9.47
2019-02-23T01:34:56.406Z,8.67
2019-02-23T01:37:24.383Z,13.57
2019-02-23T01:39:52.506Z,11.30
2019-02-23T01:42:20.648Z,12.53
2019-02-23T01:44:48.675Z,11.00
2019-02-23T01:47:16.668Z,12.10
2019-02-23T01:49:44.698Z,11.40
2019-02-23T01:52:12.746Z,9.53
2019-02-23T01:54:40.743Z,10.67
2019-02-23T01:57:08.819Z,11.43
2019-02-23T01:59:36.803Z,10.20
2019-02-23T02:02:04.773Z,9.80
2019-02-23T02:04:32.777Z,13.47
2019-02-23T02:07:00.782Z,9.37
2019-02-23T02:09:29.098Z,11.17
2019-02-23T02:11:58.439Z,12.63
2019-02-23T02:14:26.882Z,10.43
2019-02-23T02:16:54.852Z,14.30
2019-02-23T02:19:22.844Z,13.37
2019-02-23T02:21:51.718Z,12.13
2019-02-23T02:24:19.723Z,12.37
2019-02-23T02:26:47.674Z,13.13
2019-02-23T02:29:15.676Z,11.87
2019-02-23T02:31:43.616Z,16.20
2019-02-23T02:34:12.946Z,11.67
2019-02-23T02:36:40.934Z,14.17
2019-02-23T02:39:09.601Z,12.40
2019-02-23T02:41:37.620Z,12.43
2019-02-23T02:44:05.654Z,17.03
2019-02-23T02:46:34.019Z,11.70
2019-02-23T02:49:03.771Z,14.27
2019-02-23T02:51:31.818Z,13.30
2019-02-23T02:53:59.857Z,14.77
2019-02-23T02:56:27.893Z,13.97
2019-02-23T02:58:55.886Z,13.57
2019-02-23T03:01:24.369Z,14.00
2019-02-23T03:03:52.326Z,12.37
2019-02-23T03:06:20.345Z,14.47
2019-02-23T03:08:48.373Z,13.73
2019-02-23T03:11:17.369Z,11.73
2019-02-23T03:13:45.347Z,13.57
2019-02-23T03:16:13.362Z,12.20
2019-02-23T03:18:43.665Z,15.20
2019-02-23T03:21:11.649Z,12.93
2019-02-23T03:23:39.711Z,14.90
2019-02-23T03:26:07.724Z,14.33
2019-02-23T03:28:36.307Z,16.00
2019-02-23T03:31:04.369Z,15.30
2019-02-23T03:33:32.352Z,14.67
2019-02-23T03:36:00.344Z,14.83
2019-02-23T03:38:28.350Z,17.80
2019-02-23T03:40:57.255Z,14.50
2019-02-23T03:43:25.250Z,14.03
2019-02-23T03:45:54.774Z,13.83
2019-02-23T03:48:22.778Z,13.43
2019-02-23T03:50:50.798Z,13.63
2019-02-23T03:53:20.189Z,19.33
2019-02-23T03:55:48.179Z,16.77
2019-02-23T03:58:16.187Z,14.43
2019-02-23T04:00:44.280Z,16.33
2019-02-23T04:03:12.358Z,15.77
2019-02-23T04:05:40.382Z,18.57
2019-02-23T04:08:08.460Z,18.83
2019-02-23T04:10:36.530Z,16.83
2019-02-23T04:13:04.498Z,15.83
2019-02-23T04:15:32.500Z,16.00
2019-02-23T04:18:00.837Z,13.63
2019-02-23T04:20:28.864Z,15.77
2019-02-23T04:22:56.814Z,18.20
2019-02-23T04:25:24.896Z,16.47
2019-02-23T04:27:52.875Z,19.77
2019-02-23T04:30:20.959Z,18.57
2019-02-23T04:32:48.953Z,16.33
2019-02-23T04:35:17.004Z,15.63
2019-02-23T04:37:45.031Z,21.77
2019-02-23T04:40:19.312Z,17.70
2019-02-23T04:42:47.284Z,17.00
2019-02-23T04:45:15.749Z,17.83
2019-02-23T04:47:45.753Z,17.10
2019-02-23T04:50:13.517Z,18.27
2019-02-23T04:52:41.604Z,16.27
2019-02-23T04:55:09.639Z,14.13
2019-02-23T04:57:38.062Z,17.07
2019-02-23T05:00:06.604Z,20.43
2019-02-23T05:02:34.723Z,18.33
2019-02-23T05:05:02.727Z,17.53
2019-02-23T05:07:30.732Z,21.00
2019-02-23T05:09:59.684Z,17.27
2019-02-23T05:12:28.041Z,21.37
2019-02-23T05:14:56.040Z,17.80
2019-02-23T05:17:24.058Z,18.67
2019-02-23T05:19:52.146Z,18.17
2019-02-23T05:22:22.349Z,17.10
2019-02-23T05:24:53.288Z,19.53
2019-02-23T05:27:20.006Z,16.17
2019-02-23T05:29:47.995Z,18.87
2019-02-23T05:32:15.961Z,18.77
2019-02-23T05:34:43.955Z,21.27
2019-02-23T05:37:12.008Z,20.23
2019-02-23T05:39:40.014Z,19.57
2019-02-23T05:42:08.018Z,16.10
2019-02-23T05:44:36.111Z,21.40
2019-02-23T05:47:04.083Z,17.23
2019-02-23T05:49:32.096Z,18.93
2019-02-23T05:52:00.084Z,20.73
2019-02-23T05:54:28.107Z,21.93
2019-02-23T05:56:56.104Z,19.57
2019-02-23T05:59:24.066Z,18.27
2019-02-23T06:01:52.085Z,19.77
2019-02-23T06:04:20.176Z,16.97
2019-02-23T06:06:48.173Z,17.37
2019-02-23T06:09:16.568Z,17.23
2019-02-23T06:11:44.581Z,20.07
2019-02-23T06:14:12.652Z,15.97
2019-02-23T06:16:40.668Z,18.73
2019-02-23T06:19:08.641Z,20.43
2019-02-23T06:21:36.726Z,19.33
2019-02-23T06:24:04.699Z,18.37
2019-02-23T06:26:32.707Z,20.90
2019-02-23T06:29:00.722Z,21.47
2019-02-23T06:31:28.745Z,20.07
2019-02-23T06:33:56.818Z,19.00
2019-02-23T06:36:24.797Z,16.77
2019-02-23T06:38:52.908Z,21.83
2019-02-23T06:41:20.963Z,21.33
2019-02-23T06:43:49.073Z,16.47
2019-02-23T06:46:17.161Z,19.50
2019-02-23T06:48:45.254Z,22.83
2019-02-23T06:51:13.556Z,20.97
2019-02-23T06:53:41.784Z,19.10
2019-02-23T06:56:10.158Z,20.10
2019-02-23T06:58:38.235Z,20.40
2019-02-23T07:01:06.263Z,18.27
2019-02-23T07:03:34.302Z,22.67
2019-02-23T07:06:03.466Z,21.33
2019-02-23T07:08:31.556Z,19.20
2019-02-23T07:10:59.617Z,22.13
2019-02-23T07:13:27.643Z,26.47
2019-02-23T07:15:55.681Z,20.00
2019-02-23T07:18:23.693Z,21.13
2019-02-23T07:20:51.810Z,22.30
2019-02-23T07:23:19.841Z,21.55
2019-02-23T07:25:47.865Z,18.47
2019-02-23T07:28:15.871Z,22.90
2019-02-23T07:30:45.135Z,20.53
2019-02-23T07:33:13.158Z,23.00
2019-02-23T07:35:41.686Z,21.30
2019-02-23T07:38:09.718Z,21.77
2019-02-23T07:40:37.744Z,20.13
2019-02-23T07:43:07.445Z,21.30
2019-02-23T07:45:36.235Z,19.17
2019-02-23T07:48:04.327Z,18.87
2019-02-23T07:50:32.410Z,20.60
2019-02-23T07:53:00.460Z,19.97
2019-02-23T07:55:28.479Z,22.53
2019-02-23T07:57:56.652Z,20.07
2019-02-23T08:00:24.665Z,19.33
2019-02-23T08:02:52.800Z,19.90
2019-02-23T08:05:22.642Z,23.40
2019-02-23T08:07:50.972Z,22.63
2019-02-23T08:10:19.080Z,21.47
2019-02-23T08:12:47.231Z,22.87
2019-02-23T08:15:15.745Z,25.10
2019-02-23T08:17:43.835Z,27.97
2019-02-23T08:20:12.271Z,19.77
2019-02-23T08:22:40.365Z,19.53
2019-02-23T08:25:08.542Z,16.57
2019-02-23T08:27:38.483Z,17.80
2019-02-23T08:30:07.518Z,18.03
2019-02-23T08:32:36.663Z,24.60
2019-02-23T08:35:05.000Z,21.17
2019-02-23T08:37:33.162Z,22.17
2019-02-23T08:40:01.253Z,21.97
2019-02-23T08:42:29.320Z,20.47
2019-02-23T08:44:57.455Z,17.07
2019-02-23T08:47:25.521Z,17.90
2019-02-23T08:49:56.136Z,19.73
2019-02-23T08:52:24.276Z,17.47
2019-02-23T08:54:52.348Z,17.53
2019-02-23T08:57:20.408Z,19.50
2019-02-23T08:59:48.467Z,17.20
2019-02-23T09:02:16.597Z,16.37
2019-02-23T09:04:44.777Z,17.47
2019-02-23T09:07:12.875Z,19.87
2019-02-23T09:09:41.005Z,17.40
2019-02-23T09:12:09.311Z,16.67
2019-02-23T09:14:37.367Z,17.17
2019-02-23T09:17:05.483Z,14.60
2019-02-23T09:19:33.560Z,17.23
2019-02-23T09:22:01.641Z,14.63
2019-02-23T09:24:29.748Z,19.13
2019-02-23T09:26:58.937Z,17.97
2019-02-23T09:29:27.068Z,15.40
2019-02-23T09:31:55.207Z,18.63
2019-02-23T09:34:23.265Z,18.70
2019-02-23T09:36:51.317Z,18.83
2019-02-23T09:39:19.381Z,19.93
2019-02-23T09:41:47.473Z,17.80
2019-02-23T09:44:16.564Z,21.47
2019-02-23T09:46:45.278Z,14.63
2019-02-23T09:49:13.553Z,19.50
2019-02-23T09:51:41.681Z,18.53
2019-02-23T09:54:10.053Z,17.93
2019-02-23T09:56:38.103Z,16.43
2019-02-23T09:59:06.318Z,20.23
2019-02-23T10:01:34.279Z,16.07
2019-02-23T10:04:02.568Z,14.87
2019-02-23T10:06:30.569Z,16.33
2019-02-23T10:08:58.657Z,24.30
2019-02-23T10:11:26.669Z,16.37
2019-02-23T10:13:55.138Z,17.63
2019-02-23T10:16:23.338Z,17.33
2019-02-23T10:18:51.474Z,19.93
2019-02-23T10:21:19.512Z,16.93
2019-02-23T10:23:47.857Z,15.27
2019-02-23T10:26:16.430Z,17.70
2019-02-23T10:28:44.572Z,14.50
2019-02-23T10:31:12.639Z,20.20
2019-02-23T10:33:47.339Z,16.07
2019-02-23T10:36:10.339Z,14.90
2019-02-23T10:38:41.684Z,17.37
2019-02-23T10:41:09.765Z,17.17
2019-02-23T10:43:37.818Z,16.10
2019-02-23T10:46:05.812Z,18.07
2019-02-23T10:48:33.936Z,14.57
2019-02-23T10:51:01.915Z,16.67
2019-02-23T10:53:32.806Z,20.27
2019-02-23T10:56:00.026Z,16.93
2019-02-23T10:58:29.247Z,17.17
2019-02-23T11:00:57.462Z,14.90
2019-02-23T11:03:26.365Z,16.57
2019-02-23T11:05:54.522Z,14.43
2019-02-23T11:08:22.825Z,15.30
2019-02-23T11:10:52.004Z,20.20
2019-02-23T11:13:21.480Z,15.27
2019-02-23T11:15:50.891Z,15.30
2019-02-23T11:18:21.695Z,16.03
2019-02-23T11:20:56.089Z,14.03
2019-02-23T11:23:25.174Z,15.63
2019-02-23T11:25:56.186Z,16.67
2019-02-23T11:28:24.788Z,15.40
2019-02-23T11:30:53.044Z,15.20
2019-02-23T11:33:21.038Z,17.53
2019-02-23T11:35:49.100Z,17.87
2019-02-23T11:38:17.121Z,14.23
2019-02-23T11:40:45.174Z,16.47
2019-02-23T11:43:13.260Z,15.97
2019-02-23T11:45:42.084Z,14.50
2019-02-23T11:48:10.158Z,15.27
2019-02-23T11:50:38.157Z,18.67
2019-02-23T11:53:06.355Z,15.47
2019-02-23T11:55:34.409Z,14.37
2019-02-23T11:58:02.498Z,16.50
2019-02-23T12:00:30.731Z,15.17
2019-02-23T12:02:58.780Z,13.67
2019-02-23T12:05:26.798Z,14.17
2019-02-23T12:07:54.819Z,15.37
2019-02-23T12:10:22.838Z,14.63
2019-02-23T12:12:50.911Z,14.03
2019-02-23T12:15:18.970Z,15.77
2019-02-23T12:17:46.963Z,17.43
2019-02-23T12:20:15.004Z,15.70
2019-02-23T12:22:43.070Z,15.07
2019-02-23T12:25:15.117Z,13.37
2019-02-23T12:27:40.790Z,15.53
2019-02-23T12:30:08.862Z,14.80
2019-02-23T12:32:36.926Z,14.27
2019-02-23T12:35:05.203Z,13.13
2019-02-23T12:37:33.275Z,13.27
2019-02-23T12:40:01.410Z,14.40
2019-02-23T12:42:29.499Z,15.80
2019-02-23T12:44:57.533Z,15.77
2019-02-23T12:47:25.585Z,15.10
2019-02-23T12:49:53.635Z,14.53
2019-02-23T12:52:21.636Z,16.20
2019-02-23T12:54:49.666Z,14.80
2019-02-23T12:57:17.686Z,12.77
2019-02-23T12:59:45.682Z,12.90
2019-02-23T13:02:13.705Z,17.47
2019-02-23T13:04:42.828Z,11.83
2019-02-23T13:07:10.883Z,11.70
2019-02-23T13:09:40.894Z,11.93
2019-02-23T13:12:17.131Z,13.83
2019-02-23T13:15:10.108Z,14.17
2019-02-23T13:17:45.313Z,12.57
2019-02-23T13:20:20.799Z,15.00
2019-02-23T13:22:56.567Z,15.37
2019-02-23T13:25:35.489Z,15.10
2019-02-23T13:28:11.596Z,15.13
2019-02-23T13:30:58.910Z,10.73
2019-02-23T13:33:49.203Z,15.17
2019-02-23T13:36:35.331Z,13.27
2019-02-23T13:39:08.357Z,11.50
2019-02-23T13:41:45.144Z,11.23
2019-02-23T13:44:50.474Z,12.73
2019-02-23T13:47:42.007Z,12.33
2019-02-23T13:50:18.987Z,11.87
2019-02-23T13:53:17.544Z,13.77
2019-02-23T13:55:54.109Z,11.13
2019-02-23T13:58:36.964Z,10.37
2019-02-23T14:01:24.128Z,12.00
2019-02-23T14:03:58.366Z,12.10
2019-02-23T14:06:28.976Z,15.33
2019-02-23T14:09:14.990Z,13.20
2019-02-23T14:11:47.322Z,15.40
2019-02-23T14:14:27.439Z,12.33
2019-02-23T14:17:14.712Z,12.47
2019-02-23T14:20:00.585Z,10.57
2019-02-23T14:22:42.333Z,11.93
2019-02-23T14:25:17.300Z,11.17
2019-02-23T14:28:16.079Z,14.27
2019-02-23T14:30:57.335Z,12.27
2019-02-23T14:33:47.576Z,13.70
2019-02-23T14:36:18.452Z,13.50
2019-02-23T14:39:17.868Z,11.67
2019-02-23T14:42:09.174Z,12.60
2019-02-23T14:44:39.375Z,9.70
2019-02-23T14:47:24.751Z,12.77
2019-02-23T14:49:59.844Z,14.17
2019-02-23T14:52:45.484Z,12.83
2019-02-23T14:55:19.453Z,16.93
2019-02-23T14:58:05.340Z,13.67
2019-02-23T15:00:48.059Z,12.23
2019-02-23T15:03:33.799Z,11.13
2019-02-23T15:06:21.096Z,14.67
2019-02-23T15:09:08.138Z,10.70
2019-02-23T15:12:16.271Z,14.43
2019-02-23T15:14:52.467Z,10.20
2019-02-23T15:17:48.323Z,13.33
2019-02-23T15:20:41.307Z,15.13
2019-02-23T15:23:32.009Z,11.30
2019-02-23T15:26:20.375Z,14.20
2019-02-23T15:29:22.921Z,13.73
2019-02-23T15:31:56.644Z,15.50
2019-02-23T15:34:46.949Z,15.20
2019-02-23T15:37:33.743Z,15.20
2019-02-23T15:40:35.993Z,15.10
2019-02-23T15:43:32.203Z,13.17
2019-02-23T15:46:28.361Z,15.47
2019-02-23T15:49:31.089Z,15.03
2019-02-23T15:52:00.286Z,13.43
2019-02-23T15:54:29.333Z,13.27
2019-02-23T15:56:57.908Z,12.57
2019-02-23T15:59:25.934Z,11.80
2019-02-23T16:01:54.019Z,14.47
2019-02-23T16:04:22.082Z,18.07
2019-02-23T16:06:50.220Z,16.30
2019-02-23T16:09:18.277Z,16.67
2019-02-23T16:11:46.306Z,21.83
2019-02-23T16:14:14.969Z,55.23
2019-02-23T16:16:42.949Z,19.77
2019-02-23T16:19:12.063Z,20.50
2019-02-23T16:21:41.148Z,17.70
2019-02-23T16:24:10.693Z,18.77
2019-02-23T16:26:38.978Z,19.97
2019-02-23T16:29:07.005Z,16.77
2019-02-23T16:31:35.051Z,17.67
2019-02-23T16:34:07.159Z,20.02
2019-02-23T16:36:33.952Z,20.47
2019-02-23T16:39:04.404Z,58.87
2019-02-23T16:41:34.142Z,29.70
2019-02-23T16:44:02.164Z,21.23
2019-02-23T16:46:30.199Z,17.87
2019-02-23T16:48:58.527Z,21.20
2019-02-23T16:51:26.563Z,19.17
2019-02-23T16:53:54.639Z,27.37
2019-02-23T16:56:23.836Z,16.07
2019-02-23T16:58:51.838Z,21.97
2019-02-23T17:01:19.866Z,15.77
2019-02-23T17:03:47.873Z,18.27
2019-02-23T17:06:15.912Z,19.33
2019-02-23T17:08:43.954Z,19.27
2019-02-23T17:11:13.932Z,18.93
2019-02-23T17:13:42.022Z,17.77
2019-02-23T17:16:10.146Z,18.70
2019-02-23T17:18:38.235Z,20.67
2019-02-23T17:21:06.281Z,21.13
2019-02-23T17:23:34.333Z,17.80
2019-02-23T17:26:04.906Z,20.27
2019-02-23T17:28:32.066Z,20.73
2019-02-23T17:31:00.210Z,19.63
2019-02-23T17:33:28.216Z,23.60
2019-02-23T17:35:56.431Z,19.87
2019-02-23T17:38:24.622Z,27.10
2019-02-23T17:40:52.869Z,25.47
2019-02-23T17:43:20.848Z,21.13
2019-02-23T17:45:48.933Z,20.07
2019-02-23T17:48:16.995Z,19.50
2019-02-23T17:50:45.091Z,23.23
2019-02-23T17:53:14.141Z,23.23
2019-02-23T17:55:42.357Z,23.40
2019-02-23T17:58:10.492Z,21.47
2019-02-23T18:00:38.802Z,22.00
2019-02-23T18:03:07.268Z,24.07
2019-02-23T18:05:36.797Z,25.20
2019-02-23T18:08:05.292Z,22.97
2019-02-23T18:10:33.611Z,21.73
2019-02-23T18:13:04.532Z,20.37
2019-02-23T18:15:32.589Z,22.10
2019-02-23T18:18:01.713Z,25.07
2019-02-23T18:20:30.147Z,20.50
2019-02-23T18:23:02.300Z,23.20
2019-02-23T18:25:36.440Z,23.70
2019-02-23T18:28:04.872Z,24.70
2019-02-23T18:30:33.319Z,27.93
2019-02-23T18:33:01.908Z,30.87
2019-02-23T18:35:32.012Z,24.80
2019-02-23T18:38:00.532Z,30.43
2019-02-23T18:40:31.852Z,23.47
2019-02-23T18:43:00.595Z,27.43
2019-02-23T18:45:29.064Z,32.57
2019-02-23T18:47:57.856Z,27.67
2019-02-23T18:50:26.793Z,32.50
2019-02-23T18:52:55.159Z,32.33
2019-02-23T18:55:24.001Z,33.17
2019-02-23T18:57:52.670Z,25.83
2019-02-23T19:00:24.307Z,27.83
2019-02-23T19:02:51.566Z,26.70
2019-02-23T19:05:20.208Z,33.97
2019-02-23T19:07:48.872Z,32.63
2019-02-23T19:10:17.528Z,26.70
2019-02-23T19:12:47.138Z,25.67
2019-02-23T19:15:15.796Z,25.80
2019-02-23T19:17:44.776Z,26.87
2019-02-23T19:20:13.978Z,31.23
2019-02-23T19:22:42.902Z,26.30
2019-02-23T19:25:11.771Z,25.97
2019-02-23T19:27:39.901Z,28.63
2019-02-23T19:30:08.809Z,32.70
2019-02-23T19:32:36.887Z,27.30
2019-02-23T19:35:05.356Z,27.70
2019-02-23T19:37:33.401Z,29.07
2019-02-23T19:40:01.465Z,29.20
2019-02-23T19:42:29.600Z,27.70
2019-02-23T19:44:58.636Z,29.03
2019-02-23T19:47:28.562Z,26.37
2019-02-23T19:50:05.932Z,33.23
2019-02-23T19:52:34.097Z,24.83
2019-02-23T19:55:02.844Z,26.17
2019-02-23T19:57:30.989Z,26.93
2019-02-23T19:59:59.164Z,29.43
2019-02-23T20:02:27.375Z,27.67
2019-02-23T20:04:55.478Z,24.93
2019-02-23T20:07:23.590Z,26.33
2019-02-23T20:09:52.185Z,25.23
2019-02-23T20:12:20.328Z,23.57
2019-02-23T20:14:48.935Z,31.77
2019-02-23T20:17:17.077Z,25.77
2019-02-23T20:19:45.325Z,28.97
2019-02-23T20:22:13.393Z,26.50
2019-02-23T20:24:41.432Z,26.73
2019-02-23T20:27:10.536Z,27.60
2019-02-23T20:29:38.649Z,29.17
2019-02-23T20:32:06.740Z,28.00
2019-02-23T20:34:34.935Z,36.33
2019-02-23T20:37:03.086Z,29.00
2019-02-23T20:39:31.232Z,30.40
2019-02-23T20:41:59.583Z,30.40
2019-02-23T20:44:27.649Z,27.43
2019-02-23T20:46:56.461Z,29.87
2019-02-23T20:49:24.535Z,30.63
2019-02-23T20:51:52.525Z,30.47
2019-02-23T20:54:20.695Z,29.27
2019-02-23T20:56:48.802Z,27.97
2019-02-23T20:59:17.492Z,29.43
2019-02-23T21:01:45.526Z,27.57
2019-02-23T21:04:13.621Z,29.73
2019-02-23T21:06:41.947Z,29.40
2019-02-23T21:09:10.211Z,31.83
2019-02-23T21:11:38.326Z,27.03
2019-02-23T21:14:06.451Z,26.03
2019-02-23T21:16:34.564Z,32.10
2019-02-23T21:19:02.729Z,51.10
2019-02-23T21:21:30.864Z,31.83
2019-02-23T21:23:58.879Z,29.87
2019-02-23T21:26:26.964Z,30.60
2019-02-23T21:28:55.343Z,32.43
2019-02-23T21:31:23.378Z,29.67
2019-02-23T21:33:51.396Z,26.47
2019-02-23T21:36:19.400Z,30.00
2019-02-23T21:38:48.998Z,29.93
2019-02-23T21:41:17.153Z,29.43
2019-02-23T21:43:45.321Z,36.10
2019-02-23T21:46:15.215Z,50.83
2019-02-23T21:48:44.887Z,44.53
2019-02-23T21:51:13.010Z,49.33
2019-02-23T21:53:41.336Z,44.70
2019-02-23T21:56:09.656Z,35.87
2019-02-23T21:58:37.695Z,27.17
2019-02-23T22:01:05.833Z,33.87
2019-02-23T22:03:33.991Z,36.73
2019-02-23T22:06:02.619Z,41.90
2019-02-23T22:08:30.697Z,49.23
2019-02-23T22:10:58.836Z,45.83
2019-02-23T22:13:27.037Z,44.63
2019-02-23T22:15:55.201Z,36.83
2019-02-23T22:18:23.348Z,37.23
2019-02-23T22:20:51.386Z,41.73
2019-02-23T22:23:19.472Z,38.03
2019-02-23T22:25:47.525Z,32.17
2019-02-23T22:28:16.684Z,35.40
2019-02-23T22:30:44.722Z,33.93
2019-02-23T22:33:12.774Z,35.50
2019-02-23T22:35:40.800Z,39.20
2019-02-23T22:38:10.363Z,32.87
2019-02-23T22:40:38.401Z,35.20
2019-02-23T22:43:06.412Z,36.00
2019-02-23T22:45:34.502Z,36.20
2019-02-23T22:48:02.556Z,36.40
2019-02-23T22:50:32.030Z,36.40
2019-02-23T22:53:01.656Z,32.77
2019-02-23T22:55:31.083Z,31.07
2019-02-23T22:58:05.176Z,31.93
2019-02-23T23:01:11.316Z,34.73
2019-02-23T23:03:40.695Z,29.83
2019-02-23T23:06:11.502Z,34.67
2019-02-23T23:08:41.037Z,32.87
2019-02-23T23:11:10.405Z,31.43
2019-02-23T23:13:40.352Z,33.40
2019-02-23T23:16:10.289Z,32.40
2019-02-23T23:18:41.152Z,30.17
2019-02-23T23:21:10.536Z,29.90
2019-02-23T23:23:39.881Z,33.80
2019-02-23T23:26:11.516Z,28.97
2019-02-23T23:28:40.299Z,29.90
2019-02-23T23:31:09.728Z,29.90
2019-02-23T23:33:41.201Z,33.67
2019-02-23T23:36:10.543Z,31.33
2019-02-23T23:38:38.559Z,30.27
2019-02-23T23:41:06.571Z,31.97
2019-02-23T23:43:34.624Z,30.20
2019-02-23T23:46:03.283Z,33.17
2019-02-23T23:48:31.305Z,30.67
2019-02-23T23:50:59.375Z,33.87
2019-02-23T23:53:27.341Z,31.53
2019-02-23T23:55:55.365Z,31.50
2019-02-23T23:58:23.390Z,34.07
